Airfield :
LOGIN :

Register | Disclaimer

   EN    FR    IT 

 










Legend :    VFR   Marginal VFR   IFR   Intensive IFR   Very Intensive IFR
Visi :
Ceiling :
>= 8 km
>= 3000ft
5 to 8 km
1000 to 3000 ft
1500m to 5 km
500 to 1000 ft
800 to 1500m
200 to 500 ft
< 800m
< 200 ft
Symbols :   Thunderstorms  Fog  Heavy snow  Heavy precipitations  Wind > 20 kt
SIGMETs :     Misc.  Thunderstorms  Icing  Turbulence  Mountain Waves  Volcanic Ashes







- Airport Elevation : 266 ft
- IATA code : NCL
- Download approach charts


EGNT - Newcastle

CURRENT METAR :
  • 241320Z 13005KT 060V190 9000 NSC 18/13 Q1018

EXPIRED METARs :
  • 241250Z 17006KT 120V210 9000 NSC 17/12 Q1018
  • 241220Z 15006KT 100V190 9000 FEW030 18/11 Q1018
  • 241150Z 18008KT 120V200 9000 FEW030 18/12 Q1018
  • 241120Z 16006KT 110V200 9000 FEW020 16/12 Q1018
  • 241050Z 17007KT 110V210 9000 FEW020 16/12 Q1018

TAF TAF EGNT
Valid from the 24 at 12:00 until the 25 at 12:00 UTC


241100Z 2412/2512 15008KT 9999 FEW020
PROB40
TEMPO 2412/2414 9000
TEMPO 2420/2505 4000 RADZ BKN008
TEMPO 2505/2512 2000 DZ BR BKN003
ATIS : +44 191 214 3400
No reported NOTAMs for that airfield.



MET'MAP, your aeronautical weather chart ! - Copyright ORBIFLY December 2007 - Disclaimer

ORBIFLY MET'MAP TEAM :

Programming & Development : Alexandra Zaïnal
Concept & Development : Baudouin d'Aumeries
Co-Development & Prog : Marc-Olivier Méhu
Technical & hardware support : Manuel Goepfert

Contact : metmap@orbifly.com




SOURCES & CREDITS :

   NOAA